createdAt,value
2023-04-08T00:02:10.973Z,14.87
2023-04-08T00:04:40.856Z,13.27
2023-04-08T00:07:10.688Z,14.13
2023-04-08T00:09:40.724Z,13.87
2023-04-08T00:12:11.137Z,14.77
2023-04-08T00:14:44.043Z,14.23
2023-04-08T00:17:13.942Z,15.43
2023-04-08T00:19:43.835Z,13.63
2023-04-08T00:22:13.878Z,14.60
2023-04-08T00:24:43.796Z,14.73
2023-04-08T00:27:13.583Z,14.43
2023-04-08T00:29:46.763Z,15.50
2023-04-08T00:32:16.911Z,15.70
2023-04-08T00:34:46.698Z,13.47
2023-04-08T00:37:16.552Z,13.87
2023-04-08T00:39:46.830Z,15.00
2023-04-08T00:42:17.239Z,14.70
2023-04-08T00:44:49.751Z,14.43
2023-04-08T00:47:19.656Z,14.20
2023-04-08T00:49:49.488Z,14.50
2023-04-08T00:52:19.378Z,14.37
2023-04-08T00:54:49.295Z,14.80
2023-04-08T00:57:19.271Z,14.43
2023-04-08T00:59:51.783Z,14.20
2023-04-08T01:02:30.154Z,14.00
2023-04-08T01:05:06.374Z,14.07
2023-04-08T01:07:39.743Z,14.13
2023-04-08T01:10:16.348Z,14.23
2023-04-08T01:12:51.662Z,13.57
2023-04-08T01:15:25.118Z,14.40
2023-04-08T01:17:56.884Z,13.53
2023-04-08T01:20:28.565Z,13.97
2023-04-08T01:23:12.778Z,14.13
2023-04-08T01:25:43.067Z,13.37
2023-04-08T01:28:19.388Z,13.97
2023-04-08T01:30:50.936Z,14.50
2023-04-08T01:33:22.455Z,13.80
2023-04-08T01:35:52.570Z,14.17
2023-04-08T01:38:24.574Z,14.83
2023-04-08T01:40:55.319Z,14.40
2023-04-08T01:43:29.252Z,14.07
2023-04-08T01:46:01.023Z,14.67
2023-04-08T01:48:32.620Z,14.60
2023-04-08T01:51:03.787Z,14.17
2023-04-08T01:53:33.806Z,14.70
2023-04-08T01:56:09.019Z,15.00
2023-04-08T01:58:45.906Z,14.33
2023-04-08T02:01:20.211Z,13.53
2023-04-08T02:03:52.360Z,14.20
2023-04-08T02:06:22.651Z,14.53
2023-04-08T02:08:52.922Z,14.10
2023-04-08T02:11:26.065Z,13.60
2023-04-08T02:13:59.215Z,14.10
2023-04-08T02:16:35.733Z,14.60
2023-04-08T02:19:11.218Z,14.10
2023-04-08T02:21:50.419Z,14.20
2023-04-08T02:24:21.564Z,14.27
2023-04-08T02:26:54.400Z,14.10
2023-04-08T02:29:28.173Z,14.17
2023-04-08T02:31:59.102Z,13.40
2023-04-08T02:34:29.948Z,12.80
2023-04-08T02:36:59.733Z,13.33
2023-04-08T02:39:34.311Z,18.67
2023-04-08T02:42:04.203Z,13.47
2023-04-08T02:44:37.011Z,13.77
2023-04-08T02:47:06.831Z,12.17
2023-04-08T02:49:36.639Z,12.93
2023-04-08T02:52:06.628Z,12.27
2023-04-08T02:54:36.549Z,14.17
2023-04-08T02:57:06.413Z,12.90
2023-04-08T02:59:41.158Z,12.03
2023-04-08T03:02:11.042Z,10.83
2023-04-08T03:04:40.963Z,14.50
2023-04-08T03:07:11.122Z,11.90
2023-04-08T03:09:41.544Z,11.10
2023-04-08T03:12:11.469Z,12.37
2023-04-08T03:14:43.945Z,11.60
2023-04-08T03:17:13.917Z,10.00
2023-04-08T03:19:43.825Z,10.67
2023-04-08T03:22:13.706Z,11.30
2023-04-08T03:24:43.626Z,13.00
2023-04-08T03:27:14.378Z,11.87
2023-04-08T03:29:47.003Z,12.13
2023-04-08T03:32:17.132Z,11.37
2023-04-08T03:34:46.987Z,11.03
2023-04-08T03:37:16.772Z,10.67
2023-04-08T03:39:46.669Z,11.13
2023-04-08T03:42:16.488Z,11.87
2023-04-08T03:44:48.931Z,11.03
2023-04-08T03:47:18.812Z,10.87
2023-04-08T03:49:48.608Z,11.23
2023-04-08T03:52:18.503Z,10.97
2023-04-08T03:54:48.330Z,11.23
2023-04-08T03:57:18.550Z,11.20
2023-04-08T03:59:50.905Z,11.63
2023-04-08T04:02:20.951Z,11.63
2023-04-08T04:04:50.889Z,11.37
2023-04-08T04:07:20.807Z,10.30
2023-04-08T04:09:54.349Z,11.70
2023-04-08T04:12:24.152Z,11.53
2023-04-08T04:14:56.721Z,10.90
2023-04-08T04:17:26.566Z,11.83
2023-04-08T04:19:56.526Z,10.27
2023-04-08T04:22:26.407Z,10.20
2023-04-08T04:24:56.154Z,11.17
2023-04-08T04:27:26.073Z,11.30
2023-04-08T04:29:58.525Z,11.70
2023-04-08T04:32:28.442Z,12.10
2023-04-08T04:34:58.304Z,12.97
2023-04-08T04:37:28.506Z,12.23
2023-04-08T04:39:58.359Z,13.13
2023-04-08T04:42:28.169Z,12.90
2023-04-08T04:45:03.149Z,12.87
2023-04-08T04:47:33.041Z,14.03
2023-04-08T04:50:02.876Z,13.50
2023-04-08T04:52:32.752Z,14.53
2023-04-08T04:55:02.622Z,14.10
2023-04-08T04:57:32.481Z,13.27
2023-04-08T05:00:05.765Z,14.13
2023-04-08T05:02:35.805Z,12.90
2023-04-08T05:05:06.163Z,13.77
2023-04-08T05:07:38.849Z,15.40
2023-04-08T05:10:09.730Z,13.30
2023-04-08T05:12:39.487Z,14.03
2023-04-08T05:15:12.781Z,13.37
2023-04-08T05:17:42.619Z,14.60
2023-04-08T05:20:12.940Z,13.43
2023-04-08T05:22:44.793Z,14.17
2023-04-08T05:25:14.913Z,13.77
2023-04-08T05:27:44.834Z,13.53
2023-04-08T05:30:17.502Z,14.53
2023-04-08T05:32:47.643Z,14.40
2023-04-08T05:35:17.485Z,16.53
2023-04-08T05:37:47.351Z,26.80
2023-04-08T05:40:17.354Z,21.00
2023-04-08T05:42:47.195Z,19.33
2023-04-08T05:45:19.662Z,15.47
2023-04-08T05:47:49.517Z,16.80
2023-04-08T05:50:19.411Z,15.23
2023-04-08T05:52:49.764Z,16.77
2023-04-08T05:55:19.558Z,26.93
2023-04-08T05:57:49.337Z,20.67
2023-04-08T06:00:22.726Z,22.03
2023-04-08T06:02:52.798Z,16.70
2023-04-08T06:05:22.934Z,17.07
2023-04-08T06:07:52.799Z,17.57
2023-04-08T06:10:22.717Z,18.77
2023-04-08T06:12:52.547Z,20.67
2023-04-08T06:15:25.279Z,19.87
2023-04-08T06:17:55.143Z,18.53
2023-04-08T06:20:25.218Z,19.87
2023-04-08T06:22:55.050Z,22.73
2023-04-08T06:25:24.983Z,19.80
2023-04-08T06:27:54.821Z,17.97
2023-04-08T06:30:27.415Z,18.73
2023-04-08T06:32:57.330Z,19.17
2023-04-08T06:35:28.409Z,20.70
2023-04-08T06:37:58.359Z,20.17
2023-04-08T06:40:28.275Z,20.37
2023-04-08T06:42:58.594Z,22.73
2023-04-08T06:45:31.101Z,25.37
2023-04-08T06:48:01.079Z,21.03
2023-04-08T06:50:30.983Z,24.90
2023-04-08T06:53:01.012Z,21.27
2023-04-08T06:55:30.858Z,28.03
2023-04-08T06:58:02.255Z,27.23
2023-04-08T07:00:46.850Z,22.43
2023-04-08T07:03:16.875Z,31.83
2023-04-08T07:05:46.946Z,20.70
2023-04-08T07:08:17.044Z,48.57
2023-04-08T07:10:46.900Z,22.17
2023-04-08T07:13:17.700Z,23.47
2023-04-08T07:15:50.154Z,27.90
2023-04-08T07:18:21.610Z,30.40
2023-04-08T07:20:54.556Z,27.70
2023-04-08T07:23:24.861Z,30.13
2023-04-08T07:25:54.700Z,25.80
2023-04-08T07:28:24.522Z,25.20
2023-04-08T07:30:57.459Z,24.20
2023-04-08T07:33:27.464Z,23.87
2023-04-08T07:35:57.324Z,23.50
2023-04-08T07:38:28.041Z,24.67
2023-04-08T07:40:57.944Z,30.30
2023-04-08T07:43:27.728Z,31.90
2023-04-08T07:46:03.641Z,31.40
2023-04-08T07:48:34.045Z,27.93
2023-04-08T07:51:08.177Z,21.70
2023-04-08T07:53:40.715Z,26.83
2023-04-08T07:56:15.397Z,27.70
2023-04-08T07:58:45.696Z,23.70
2023-04-08T08:01:22.525Z,21.87
2023-04-08T08:03:53.887Z,20.33
2023-04-08T08:06:24.159Z,20.73
2023-04-08T08:08:53.936Z,19.37
2023-04-08T08:11:23.857Z,20.40
2023-04-08T08:13:53.727Z,21.13
2023-04-08T08:16:27.582Z,22.07
2023-04-08T08:18:57.437Z,20.87
2023-04-08T08:21:27.443Z,20.87
2023-04-08T08:23:58.150Z,20.37
2023-04-08T08:26:28.909Z,21.77
2023-04-08T08:28:58.754Z,21.33
2023-04-08T08:31:31.207Z,22.37
2023-04-08T08:34:01.118Z,21.97
2023-04-08T08:36:32.749Z,22.33
2023-04-08T08:39:04.593Z,21.47
2023-04-08T08:41:37.990Z,20.67
2023-04-08T08:44:09.659Z,20.40
2023-04-08T08:46:46.921Z,21.07
2023-04-08T08:49:17.140Z,20.40
2023-04-08T08:51:49.312Z,22.17
2023-04-08T08:54:19.202Z,21.53
2023-04-08T08:56:49.286Z,21.40
2023-04-08T08:59:19.377Z,22.10
2023-04-08T09:01:51.965Z,22.20
2023-04-08T09:04:23.498Z,21.50
2023-04-08T09:07:11.402Z,21.33
2023-04-08T09:09:52.072Z,21.53
2023-04-08T09:12:22.490Z,20.73
2023-04-08T09:14:52.722Z,22.10
2023-04-08T09:17:38.196Z,20.10
2023-04-08T09:20:12.063Z,20.03
2023-04-08T09:23:00.152Z,19.17
2023-04-08T09:25:32.343Z,20.40
2023-04-08T09:28:03.225Z,19.20
2023-04-08T09:30:39.010Z,18.00
2023-04-08T09:33:11.962Z,18.60
2023-04-08T09:35:41.934Z,16.37
2023-04-08T09:38:11.754Z,15.67
2023-04-08T09:40:45.598Z,17.07
2023-04-08T09:43:18.811Z,16.43
2023-04-08T09:45:52.627Z,16.33
2023-04-08T09:48:30.837Z,16.37
2023-04-08T09:51:02.502Z,15.30
2023-04-08T09:53:37.074Z,15.10
2023-04-08T09:56:11.438Z,15.43
2023-04-08T09:58:46.487Z,13.93
2023-04-08T10:01:19.948Z,13.17
2023-04-08T10:03:57.578Z,12.43
2023-04-08T10:06:32.479Z,12.57
2023-04-08T10:09:04.566Z,11.80
2023-04-08T10:11:34.480Z,12.73
2023-04-08T10:14:05.570Z,12.10
2023-04-08T10:16:36.149Z,10.97
2023-04-08T10:19:42.370Z,10.80
2023-04-08T10:22:59.711Z,10.80
2023-04-08T10:25:34.447Z,10.00
2023-04-08T10:28:06.262Z,10.50
2023-04-08T10:30:45.864Z,10.90
2023-04-08T10:33:18.719Z,11.17
2023-04-08T10:35:57.558Z,10.17
2023-04-08T10:38:27.814Z,9.90
2023-04-08T10:40:58.644Z,9.37
2023-04-08T10:43:28.776Z,9.67
2023-04-08T10:45:58.758Z,9.83
2023-04-08T10:48:29.438Z,10.23
2023-04-08T10:51:02.988Z,9.97
2023-04-08T10:53:37.858Z,10.63
2023-04-08T10:56:09.288Z,9.97
2023-04-08T10:58:39.429Z,9.63
2023-04-08T11:01:10.514Z,8.83
2023-04-08T11:03:40.612Z,9.13
2023-04-08T11:06:13.212Z,8.73
2023-04-08T11:08:44.919Z,9.37
2023-04-08T11:11:15.043Z,8.83
2023-04-08T11:13:53.266Z,9.03
2023-04-08T11:16:24.671Z,9.07
2023-04-08T11:18:55.790Z,8.63
2023-04-08T11:21:30.657Z,9.30
2023-04-08T11:24:00.703Z,9.20
2023-04-08T11:26:30.673Z,9.57
2023-04-08T11:29:01.321Z,9.30
2023-04-08T11:31:32.212Z,8.90
2023-04-08T11:34:02.013Z,8.37
2023-04-08T11:36:36.922Z,9.40
2023-04-08T11:39:12.429Z,8.70
2023-04-08T11:41:43.284Z,9.80
2023-04-08T11:44:13.343Z,8.53
2023-04-08T11:46:46.038Z,9.30
2023-04-08T11:49:16.132Z,8.57
2023-04-08T11:52:01.006Z,7.30
2023-04-08T11:54:32.357Z,7.13
2023-04-08T11:57:03.311Z,7.43
2023-04-08T11:59:33.416Z,6.83
2023-04-08T12:02:03.488Z,7.27
2023-04-08T12:04:34.408Z,7.07
2023-04-08T12:07:07.535Z,6.27
2023-04-08T12:09:37.712Z,5.80
2023-04-08T12:12:07.628Z,6.33
2023-04-08T12:14:37.425Z,5.93
2023-04-08T12:17:07.425Z,5.30
2023-04-08T12:19:38.551Z,5.53
2023-04-08T12:22:11.223Z,5.30
2023-04-08T12:24:41.166Z,5.10
2023-04-08T12:27:13.838Z,5.00
2023-04-08T12:29:43.766Z,4.63
2023-04-08T12:32:13.783Z,5.10
2023-04-08T12:34:43.740Z,5.17
2023-04-08T12:37:16.610Z,5.10
2023-04-08T12:39:46.617Z,4.53
2023-04-08T12:42:16.688Z,4.90
2023-04-08T12:44:46.598Z,5.23
2023-04-08T12:47:16.640Z,5.10
2023-04-08T12:49:49.772Z,5.60
2023-04-08T12:52:24.437Z,6.03
2023-04-08T12:54:54.196Z,5.47
2023-04-08T12:57:24.293Z,5.60
2023-04-08T12:59:54.435Z,6.43
2023-04-08T13:02:25.824Z,6.20
2023-04-08T13:04:55.894Z,6.43
2023-04-08T13:07:28.322Z,6.40
2023-04-08T13:09:58.280Z,6.80
2023-04-08T13:12:28.138Z,6.47
2023-04-08T13:14:58.646Z,6.43
2023-04-08T13:17:28.729Z,6.33
2023-04-08T13:19:58.616Z,7.17
2023-04-08T13:22:32.402Z,6.63
2023-04-08T13:25:02.932Z,7.37
2023-04-08T13:27:32.802Z,6.23
2023-04-08T13:30:02.674Z,6.50
2023-04-08T13:32:32.798Z,6.70
2023-04-08T13:35:02.697Z,7.00
2023-04-08T13:37:35.236Z,7.03
2023-04-08T13:40:05.439Z,6.97
2023-04-08T13:42:35.619Z,9.43
2023-04-08T13:45:05.591Z,8.93
2023-04-08T13:47:37.900Z,9.13
2023-04-08T13:50:09.273Z,8.60
2023-04-08T13:52:42.249Z,8.53
2023-04-08T13:55:12.462Z,8.30
2023-04-08T13:57:42.369Z,7.93
2023-04-08T14:00:13.556Z,8.87
2023-04-08T14:02:43.947Z,8.57
2023-04-08T14:05:18.509Z,8.50
2023-04-08T14:07:51.355Z,9.07
2023-04-08T14:10:21.296Z,7.90
2023-04-08T14:12:51.221Z,9.03
2023-04-08T14:15:21.240Z,7.77
2023-04-08T14:17:51.224Z,8.00
2023-04-08T14:20:21.200Z,8.03
2023-04-08T14:22:53.947Z,9.30
2023-04-08T14:25:23.904Z,8.13
2023-04-08T14:27:58.069Z,9.43
2023-04-08T14:30:29.035Z,9.53
2023-04-08T14:32:59.493Z,8.53
2023-04-08T14:35:29.788Z,9.07
2023-04-08T14:38:02.578Z,11.33
2023-04-08T14:40:32.796Z,19.97
2023-04-08T14:43:02.799Z,11.93
2023-04-08T14:45:33.321Z,11.70
2023-04-08T14:48:03.670Z,19.77
2023-04-08T14:50:33.990Z,11.73
2023-04-08T14:53:07.093Z,11.37
2023-04-08T14:55:37.190Z,12.30
2023-04-08T14:58:09.958Z,12.97
2023-04-08T15:00:44.455Z,13.50
2023-04-08T15:03:14.514Z,12.67
2023-04-08T15:05:46.014Z,13.27
2023-04-08T15:08:18.535Z,13.53
2023-04-08T15:10:48.744Z,14.77
2023-04-08T15:13:18.723Z,14.90
2023-04-08T15:15:51.508Z,15.37
2023-04-08T15:18:21.534Z,14.23
2023-04-08T15:20:51.798Z,12.97
2023-04-08T15:23:25.075Z,13.40
2023-04-08T15:25:55.015Z,13.87
2023-04-08T15:28:24.854Z,14.87
2023-04-08T15:30:54.714Z,14.47
2023-04-08T15:33:27.508Z,13.87
2023-04-08T15:36:00.070Z,12.67
2023-04-08T15:38:33.823Z,13.30
2023-04-08T15:41:03.975Z,11.90
2023-04-08T15:43:33.953Z,11.13
2023-04-08T15:46:03.845Z,11.40
2023-04-08T15:48:35.660Z,11.73
2023-04-08T15:51:12.948Z,13.10
2023-04-08T15:53:46.104Z,12.97
2023-04-08T15:56:16.793Z,11.13
2023-04-08T15:58:47.246Z,10.27
2023-04-08T16:01:18.925Z,10.10
2023-04-08T16:03:48.979Z,10.50
2023-04-08T16:06:19.083Z,10.53
2023-04-08T16:08:51.767Z,10.63
2023-04-08T16:11:22.742Z,10.63
2023-04-08T16:13:55.256Z,11.03
2023-04-08T16:16:25.463Z,10.80
2023-04-08T16:18:56.759Z,10.77
2023-04-08T16:21:26.810Z,12.00
2023-04-08T16:24:01.102Z,12.27
2023-04-08T16:26:31.481Z,14.47
2023-04-08T16:29:02.153Z,13.90
2023-04-08T16:31:36.434Z,13.93
2023-04-08T16:34:07.397Z,15.53
2023-04-08T16:36:37.320Z,14.57
2023-04-08T16:39:09.869Z,14.37
2023-04-08T16:41:39.944Z,14.33
2023-04-08T16:44:10.174Z,15.87
2023-04-08T16:46:40.169Z,16.27
2023-04-08T16:49:13.408Z,17.03
2023-04-08T16:51:44.754Z,17.30
2023-04-08T16:54:17.317Z,15.33
2023-04-08T16:56:47.176Z,15.73
2023-04-08T16:59:17.358Z,14.73
2023-04-08T17:01:47.611Z,13.60
2023-04-08T17:04:18.569Z,13.27
2023-04-08T17:06:49.277Z,13.70
2023-04-08T17:09:22.606Z,12.87
2023-04-08T17:11:52.717Z,13.47
2023-04-08T17:14:22.588Z,15.60
2023-04-08T17:16:52.618Z,14.70
2023-04-08T17:19:22.643Z,16.03
2023-04-08T17:21:52.599Z,14.00
2023-04-08T17:24:25.173Z,15.77
2023-04-08T17:26:57.020Z,14.07
2023-04-08T17:29:26.943Z,14.77
2023-04-08T17:31:57.165Z,14.43
2023-04-08T17:34:27.701Z,14.80
2023-04-08T17:36:57.661Z,15.57
2023-04-08T17:39:30.498Z,15.50
2023-04-08T17:42:02.562Z,14.53
2023-04-08T17:44:32.617Z,14.87
2023-04-08T17:47:02.764Z,15.87
2023-04-08T17:49:32.867Z,15.73
2023-04-08T17:52:03.111Z,15.50
2023-04-08T17:54:36.227Z,16.13
2023-04-08T17:57:06.267Z,17.37
2023-04-08T17:59:36.488Z,17.53
2023-04-08T18:02:06.709Z,19.53
2023-04-08T18:04:36.888Z,18.53
2023-04-08T18:07:07.124Z,18.73
2023-04-08T18:09:41.211Z,18.70
2023-04-08T18:12:11.958Z,19.37
2023-04-08T18:14:42.333Z,19.27
2023-04-08T18:17:12.676Z,18.73
2023-04-08T18:19:42.501Z,18.17
2023-04-08T18:22:12.396Z,17.20
2023-04-08T18:24:44.899Z,17.27
2023-04-08T18:27:14.844Z,17.57
2023-04-08T18:29:44.972Z,16.77
2023-04-08T18:32:15.203Z,17.07
2023-04-08T18:34:45.149Z,16.73
2023-04-08T18:37:17.126Z,17.40
2023-04-08T18:39:49.715Z,16.40
2023-04-08T18:42:19.800Z,17.13
2023-04-08T18:44:49.851Z,17.03
2023-04-08T18:47:20.314Z,16.53
2023-04-08T18:49:50.217Z,15.33
2023-04-08T18:52:20.122Z,15.43
2023-04-08T18:54:53.139Z,16.53
2023-04-08T18:57:23.374Z,16.30
2023-04-08T18:59:53.267Z,15.93
2023-04-08T19:02:23.447Z,16.13
2023-04-08T19:04:53.518Z,17.30
2023-04-08T19:07:23.461Z,15.93
2023-04-08T19:09:59.480Z,16.40
2023-04-08T19:12:30.082Z,17.20
2023-04-08T19:15:02.659Z,17.30
2023-04-08T19:17:32.714Z,18.63
2023-04-08T19:20:03.674Z,18.20
2023-04-08T19:22:33.712Z,18.07
2023-04-08T19:25:09.311Z,19.60
2023-04-08T19:27:39.635Z,18.93
2023-04-08T19:30:11.310Z,20.27
2023-04-08T19:32:42.987Z,19.10
2023-04-08T19:35:15.731Z,19.47
2023-04-08T19:37:45.773Z,19.60
2023-04-08T19:40:19.688Z,19.83
2023-04-08T19:42:49.624Z,23.20
2023-04-08T19:45:20.297Z,24.07
2023-04-08T19:47:50.522Z,24.37
2023-04-08T19:50:22.396Z,26.10
2023-04-08T19:52:52.425Z,25.30
2023-04-08T19:55:25.316Z,24.27
2023-04-08T19:57:55.860Z,24.47
2023-04-08T20:00:26.326Z,24.67
2023-04-08T20:02:56.657Z,25.43
2023-04-08T20:05:26.839Z,24.00
2023-04-08T20:07:56.915Z,22.73
2023-04-08T20:10:29.473Z,24.23
2023-04-08T20:12:59.384Z,25.63
2023-04-08T20:15:29.579Z,24.77
2023-04-08T20:17:59.697Z,25.07
2023-04-08T20:20:30.087Z,25.03
2023-04-08T20:23:00.120Z,24.10
2023-04-08T20:25:32.866Z,24.10
2023-04-08T20:28:03.450Z,23.97
2023-04-08T20:30:33.466Z,22.33
2023-04-08T20:33:03.428Z,22.87
2023-04-08T20:35:33.507Z,23.10
2023-04-08T20:38:03.381Z,23.73
2023-04-08T20:40:38.669Z,22.80
2023-04-08T20:43:08.487Z,22.60
2023-04-08T20:45:40.003Z,23.07
2023-04-08T20:48:10.315Z,23.27
2023-04-08T20:50:40.419Z,23.50
2023-04-08T20:53:10.471Z,23.07
2023-04-08T20:55:43.104Z,21.03
2023-04-08T20:58:13.024Z,22.90
2023-04-08T21:00:42.998Z,21.13
2023-04-08T21:03:13.337Z,23.07
2023-04-08T21:05:43.417Z,21.80
2023-04-08T21:08:13.369Z,22.43
2023-04-08T21:10:46.326Z,21.20
2023-04-08T21:13:16.509Z,22.37
2023-04-08T21:15:46.598Z,20.60
2023-04-08T21:18:16.769Z,21.10
2023-04-08T21:20:46.725Z,19.27
2023-04-08T21:23:16.622Z,19.93
2023-04-08T21:25:49.199Z,19.77
2023-04-08T21:28:19.207Z,18.37
2023-04-08T21:30:49.093Z,17.43
2023-04-08T21:33:19.052Z,18.27
2023-04-08T21:35:48.983Z,18.37
2023-04-08T21:38:19.152Z,19.07
2023-04-08T21:40:51.559Z,17.83
2023-04-08T21:43:22.124Z,17.43
2023-04-08T21:45:53.599Z,18.17
2023-04-08T21:48:24.186Z,17.17
2023-04-08T21:50:54.083Z,16.87
2023-04-08T21:53:24.342Z,17.57
2023-04-08T21:55:56.876Z,16.17
2023-04-08T21:58:28.437Z,17.37
2023-04-08T22:00:58.378Z,15.77
2023-04-08T22:03:29.550Z,15.67
2023-04-08T22:05:59.555Z,16.23
2023-04-08T22:08:30.758Z,15.53
2023-04-08T22:11:03.505Z,15.17
2023-04-08T22:13:33.392Z,15.07
2023-04-08T22:16:03.346Z,15.13
2023-04-08T22:18:33.520Z,15.43
2023-04-08T22:21:03.375Z,15.50
2023-04-08T22:23:33.431Z,15.83
2023-04-08T22:26:06.002Z,15.77
2023-04-08T22:28:35.911Z,15.80
2023-04-08T22:31:06.099Z,15.90
2023-04-08T22:33:36.621Z,16.00
2023-04-08T22:36:07.206Z,16.30
2023-04-08T22:38:37.373Z,16.57
2023-04-08T22:41:09.891Z,14.40
2023-04-08T22:43:40.112Z,16.83
2023-04-08T22:46:10.302Z,16.50
2023-04-08T22:48:40.549Z,16.20
2023-04-08T22:51:11.518Z,16.53
2023-04-08T22:53:42.382Z,16.33
2023-04-08T22:56:15.533Z,16.73
2023-04-08T22:58:45.658Z,17.20
2023-04-08T23:01:17.279Z,16.00
2023-04-08T23:03:47.304Z,16.60
2023-04-08T23:06:17.489Z,16.93
2023-04-08T23:08:47.296Z,16.00
2023-04-08T23:11:19.915Z,17.60
2023-04-08T23:13:49.791Z,16.53
2023-04-08T23:16:19.794Z,16.27
2023-04-08T23:18:52.913Z,16.60
2023-04-08T23:21:23.667Z,16.30
2023-04-08T23:23:53.551Z,15.87
2023-04-08T23:26:26.045Z,15.63
2023-04-08T23:28:56.130Z,16.10
2023-04-08T23:31:26.070Z,15.63
2023-04-08T23:33:56.030Z,17.00
2023-04-08T23:36:25.885Z,15.10
2023-04-08T23:38:55.698Z,16.17
2023-04-08T23:41:28.267Z,15.77
2023-04-08T23:43:58.175Z,16.30
2023-04-08T23:46:28.157Z,15.40
2023-04-08T23:48:58.118Z,15.57
2023-04-08T23:51:28.141Z,16.47
2023-04-08T23:53:57.959Z,15.63
2023-04-08T23:56:30.729Z,15.80
2023-04-08T23:59:00.737Z,14.43
